createdAt,value
2022-08-19T00:00:00.688Z,17.24
2022-08-19T00:01:00.701Z,17.22
2022-08-19T00:02:00.811Z,17.18
2022-08-19T00:03:00.665Z,17.12
2022-08-19T00:04:00.645Z,17.05
2022-08-19T00:05:00.687Z,17.00
2022-08-19T00:06:00.625Z,16.95
2022-08-19T00:07:00.607Z,16.85
2022-08-19T00:08:00.624Z,16.81
2022-08-19T00:09:00.586Z,16.75
2022-08-19T00:10:00.583Z,16.72
2022-08-19T00:11:00.552Z,16.73
2022-08-19T00:12:00.542Z,16.75
2022-08-19T00:13:00.540Z,16.75
2022-08-19T00:14:00.594Z,16.72
2022-08-19T00:15:00.517Z,16.75
2022-08-19T00:16:00.492Z,16.77
2022-08-19T00:17:00.482Z,16.81
2022-08-19T00:18:00.473Z,16.84
2022-08-19T00:19:00.456Z,16.81
2022-08-19T00:20:00.476Z,16.82
2022-08-19T00:21:00.434Z,16.84
2022-08-19T00:22:00.416Z,16.87
2022-08-19T00:23:00.427Z,16.87
2022-08-19T00:24:00.395Z,16.82
2022-08-19T00:25:00.381Z,16.84
2022-08-19T00:26:00.491Z,16.80
2022-08-19T00:27:04.969Z,16.81
2022-08-19T00:28:01.338Z,16.80
2022-08-19T00:29:00.342Z,16.80
2022-08-19T00:30:00.331Z,16.77
2022-08-19T00:31:00.329Z,16.73
2022-08-19T00:32:00.318Z,16.70
2022-08-19T00:33:00.277Z,16.72
2022-08-19T00:34:00.300Z,16.72
2022-08-19T00:35:00.253Z,16.70
2022-08-19T00:36:00.242Z,16.73
2022-08-19T00:37:00.232Z,16.75
2022-08-19T00:38:00.328Z,16.77
2022-08-19T00:39:00.204Z,16.73
2022-08-19T00:40:00.279Z,16.73
2022-08-19T00:41:00.189Z,16.72
2022-08-19T00:42:00.163Z,16.72
2022-08-19T00:43:00.153Z,16.72
2022-08-19T00:44:00.185Z,16.69
2022-08-19T00:45:00.148Z,16.66
2022-08-19T00:46:00.116Z,16.63
2022-08-19T00:47:01.112Z,16.62
2022-08-19T00:48:00.093Z,16.59
2022-08-19T00:49:00.087Z,16.57
2022-08-19T00:50:00.215Z,16.55
2022-08-19T00:51:00.059Z,16.57
2022-08-19T00:52:00.038Z,16.55
2022-08-19T00:53:00.039Z,16.52
2022-08-19T00:54:00.018Z,16.52
2022-08-19T00:55:00.011Z,16.50
2022-08-19T00:56:00.029Z,16.50
2022-08-19T00:56:59.989Z,16.45
2022-08-19T00:57:59.968Z,16.41
2022-08-19T00:58:59.949Z,16.32
2022-08-19T01:00:02.185Z,16.25
2022-08-19T01:00:59.925Z,16.16
2022-08-19T01:02:00.119Z,16.13
2022-08-19T01:02:59.909Z,16.06
2022-08-19T01:03:59.891Z,15.99
2022-08-19T01:04:59.892Z,15.96
2022-08-19T01:05:59.862Z,15.91
2022-08-19T01:06:59.852Z,15.88
2022-08-19T01:07:59.872Z,15.85
2022-08-19T01:08:59.840Z,15.78
2022-08-19T01:09:59.814Z,15.73
2022-08-19T01:10:59.801Z,15.68
2022-08-19T01:11:59.810Z,15.67
2022-08-19T01:12:59.774Z,15.67
2022-08-19T01:13:59.795Z,15.64
2022-08-19T01:14:59.748Z,15.59
2022-08-19T01:15:59.753Z,15.59
2022-08-19T01:16:59.739Z,15.66
2022-08-19T01:17:59.717Z,15.70
2022-08-19T01:18:59.709Z,15.70
2022-08-19T01:19:59.721Z,15.73
2022-08-19T01:20:59.678Z,15.73
2022-08-19T01:21:59.681Z,15.73
2022-08-19T01:23:00.647Z,15.74
2022-08-19T01:23:59.641Z,15.73
2022-08-19T01:24:59.634Z,15.73
2022-08-19T01:25:59.639Z,15.62
2022-08-19T01:26:59.610Z,15.53
2022-08-19T01:28:01.675Z,15.46
2022-08-19T01:29:01.118Z,15.40
2022-08-19T01:29:59.565Z,15.40
2022-08-19T01:30:59.563Z,15.38
2022-08-19T01:31:59.541Z,15.38
2022-08-19T01:32:59.523Z,15.38
2022-08-19T01:33:59.527Z,15.35
2022-08-19T01:34:59.526Z,15.33
2022-08-19T01:35:59.495Z,15.33
2022-08-19T01:36:59.501Z,15.31
2022-08-19T01:37:59.466Z,15.28
2022-08-19T01:38:59.462Z,15.28
2022-08-19T01:39:59.473Z,15.30
2022-08-19T01:40:59.430Z,15.31
2022-08-19T01:41:59.417Z,15.30
2022-08-19T01:42:59.513Z,15.33
2022-08-19T01:44:17.104Z,15.38
2022-08-19T01:45:00.385Z,15.44
2022-08-19T01:45:59.373Z,15.40
2022-08-19T01:46:59.355Z,15.40
2022-08-19T01:48:02.023Z,15.41
2022-08-19T01:48:59.360Z,15.37
2022-08-19T01:49:59.307Z,15.44
2022-08-19T01:50:59.306Z,15.49
2022-08-19T01:51:59.296Z,15.44
2022-08-19T01:53:02.415Z,15.43
2022-08-19T01:54:00.288Z,15.35
2022-08-19T01:54:59.250Z,15.34
2022-08-19T01:55:59.239Z,15.33
2022-08-19T01:56:59.232Z,15.30
2022-08-19T01:57:59.209Z,15.20
2022-08-19T01:58:59.192Z,15.13
2022-08-19T01:59:59.220Z,15.11
2022-08-19T02:00:59.223Z,15.07
2022-08-19T02:01:59.197Z,15.05
2022-08-19T02:02:59.148Z,15.09
2022-08-19T02:03:59.133Z,15.11
2022-08-19T02:04:59.156Z,15.09
2022-08-19T02:05:59.223Z,15.09
2022-08-19T02:06:59.104Z,15.12
2022-08-19T02:07:59.110Z,15.13
2022-08-19T02:08:59.073Z,15.13
2022-08-19T02:09:59.075Z,15.13
2022-08-19T02:10:59.046Z,15.05
2022-08-19T02:11:59.065Z,14.95
2022-08-19T02:12:59.018Z,14.91
2022-08-19T02:13:59.022Z,14.86
2022-08-19T02:14:58.995Z,14.83
2022-08-19T02:15:59.006Z,14.80
2022-08-19T02:16:58.966Z,14.80
2022-08-19T02:17:58.984Z,14.83
2022-08-19T02:18:58.946Z,14.90
2022-08-19T02:19:58.946Z,14.90
2022-08-19T02:20:58.927Z,14.93
2022-08-19T02:21:58.908Z,14.91
2022-08-19T02:22:58.899Z,14.93
2022-08-19T02:23:58.922Z,14.91
2022-08-19T02:24:58.871Z,14.93
2022-08-19T02:25:58.896Z,14.95
2022-08-19T02:26:58.839Z,14.95
2022-08-19T02:27:58.840Z,14.94
2022-08-19T02:28:58.820Z,14.94
2022-08-19T02:29:58.924Z,14.94
2022-08-19T02:30:58.795Z,14.91
2022-08-19T02:31:58.784Z,14.94
2022-08-19T02:32:59.124Z,14.94
2022-08-19T02:33:58.752Z,14.95
2022-08-19T02:34:58.742Z,14.97
2022-08-19T02:35:58.783Z,14.94
2022-08-19T02:37:03.102Z,14.95
2022-08-19T02:37:59.725Z,14.94
2022-08-19T02:38:58.694Z,14.94
2022-08-19T02:39:58.725Z,14.94
2022-08-19T02:40:58.665Z,14.93
2022-08-19T02:41:58.684Z,14.91
2022-08-19T02:42:58.644Z,14.91
2022-08-19T02:44:23.000Z,14.94
2022-08-19T02:44:59.615Z,14.93
2022-08-19T02:45:58.633Z,14.87
2022-08-19T02:46:58.587Z,14.80
2022-08-19T02:47:58.632Z,14.72
2022-08-19T02:48:58.583Z,14.67
2022-08-19T02:49:58.560Z,14.64
2022-08-19T02:50:58.538Z,14.60
2022-08-19T02:51:58.571Z,14.56
2022-08-19T02:52:58.559Z,14.53
2022-08-19T02:53:58.550Z,14.46
2022-08-19T02:54:58.497Z,14.42
2022-08-19T02:55:58.502Z,14.41
2022-08-19T02:56:58.463Z,14.39
2022-08-19T02:57:58.449Z,14.31
2022-08-19T02:58:58.440Z,14.26
2022-08-19T02:59:58.460Z,14.26
2022-08-19T03:00:58.521Z,14.26
2022-08-19T03:01:58.401Z,14.27
2022-08-19T03:02:58.381Z,14.30
2022-08-19T03:03:58.384Z,14.36
2022-08-19T03:04:58.360Z,14.54
2022-08-19T03:05:58.373Z,14.56
2022-08-19T03:07:02.492Z,14.45
2022-08-19T03:07:59.326Z,14.45
2022-08-19T03:08:58.322Z,14.49
2022-08-19T03:09:58.297Z,14.53
2022-08-19T03:10:58.285Z,14.56
2022-08-19T03:11:58.295Z,14.54
2022-08-19T03:12:58.265Z,14.53
2022-08-19T03:13:58.245Z,14.52
2022-08-19T03:14:58.236Z,14.52
2022-08-19T03:15:58.226Z,14.52
2022-08-19T03:16:58.212Z,14.53
2022-08-19T03:17:58.305Z,14.56
2022-08-19T03:18:58.191Z,14.56
2022-08-19T03:19:58.189Z,14.61
2022-08-19T03:20:58.158Z,14.64
2022-08-19T03:21:58.149Z,14.66
2022-08-19T03:22:58.137Z,14.71
2022-08-19T03:23:58.162Z,14.90
2022-08-19T03:24:58.129Z,15.01
2022-08-19T03:26:03.946Z,15.15
2022-08-19T03:26:59.092Z,15.22
2022-08-19T03:27:58.070Z,15.22
2022-08-19T03:28:58.972Z,15.27
2022-08-19T03:29:58.085Z,15.33
2022-08-19T03:30:58.171Z,15.33
2022-08-19T03:31:58.024Z,15.31
2022-08-19T03:32:58.105Z,15.28
2022-08-19T03:33:57.993Z,15.23
2022-08-19T03:34:57.989Z,15.22
2022-08-19T03:35:57.998Z,15.16
2022-08-19T03:36:58.944Z,15.13
2022-08-19T03:37:57.959Z,15.11
2022-08-19T03:38:59.679Z,15.07
2022-08-19T03:39:57.967Z,15.03
2022-08-19T03:40:57.905Z,14.97
2022-08-19T03:42:32.858Z,14.91
2022-08-19T03:42:58.954Z,14.85
2022-08-19T03:43:57.889Z,14.75
2022-08-19T03:44:57.856Z,14.69
2022-08-19T03:45:57.844Z,14.64
2022-08-19T03:46:57.827Z,14.59
2022-08-19T03:47:57.857Z,14.53
2022-08-19T03:48:57.808Z,14.52
2022-08-19T03:49:57.798Z,14.49
2022-08-19T03:50:57.779Z,14.48
2022-08-19T03:51:57.776Z,14.45
2022-08-19T03:52:57.750Z,14.44
2022-08-19T03:53:57.762Z,14.41
2022-08-19T03:54:57.737Z,14.42
2022-08-19T03:55:57.720Z,14.35
2022-08-19T03:56:57.703Z,14.35
2022-08-19T03:57:59.309Z,14.30
2022-08-19T03:58:57.673Z,14.26
2022-08-19T04:00:12.859Z,14.23
2022-08-19T04:00:58.693Z,14.21
2022-08-19T04:01:57.649Z,14.20
2022-08-19T04:03:00.420Z,14.21
2022-08-19T04:03:57.612Z,14.20
2022-08-19T04:04:57.609Z,14.21
2022-08-19T04:05:57.629Z,14.21
2022-08-19T04:06:57.575Z,14.24
2022-08-19T04:07:57.565Z,14.23
2022-08-19T04:08:57.547Z,14.21
2022-08-19T04:09:57.548Z,14.16
2022-08-19T04:10:57.525Z,14.12
2022-08-19T04:11:57.537Z,14.08
2022-08-19T04:12:57.548Z,14.04
2022-08-19T04:13:57.488Z,13.99
2022-08-19T04:14:57.466Z,13.96
2022-08-19T04:15:57.477Z,13.91
2022-08-19T04:16:57.447Z,13.90
2022-08-19T04:17:57.468Z,13.87
2022-08-19T04:18:57.427Z,13.84
2022-08-19T04:19:57.408Z,13.81
2022-08-19T04:20:57.420Z,13.79
2022-08-19T04:21:57.391Z,13.76
2022-08-19T04:22:57.369Z,13.73
2022-08-19T04:23:57.471Z,13.73
2022-08-19T04:24:57.342Z,13.72
2022-08-19T04:25:57.331Z,13.71
2022-08-19T04:26:57.323Z,13.71
2022-08-19T04:27:57.310Z,13.71
2022-08-19T04:28:57.292Z,13.73
2022-08-19T04:29:57.404Z,13.72
2022-08-19T04:30:57.273Z,13.72
2022-08-19T04:31:57.262Z,13.73
2022-08-19T04:32:57.243Z,13.76
2022-08-19T04:33:57.241Z,13.76
2022-08-19T04:35:02.129Z,13.79
2022-08-19T04:35:58.323Z,13.80
2022-08-19T04:36:57.214Z,13.84
2022-08-19T04:37:57.199Z,13.84
2022-08-19T04:38:57.165Z,13.84
2022-08-19T04:39:58.696Z,13.87
2022-08-19T04:40:57.253Z,13.91
2022-08-19T04:41:57.180Z,13.91
2022-08-19T04:42:57.138Z,13.93
2022-08-19T04:44:00.149Z,13.93
2022-08-19T04:44:58.098Z,13.93
2022-08-19T04:46:00.848Z,13.94
2022-08-19T04:46:57.067Z,13.96
2022-08-19T04:47:58.755Z,13.99
2022-08-19T04:48:57.069Z,14.01
2022-08-19T04:49:57.039Z,14.04
2022-08-19T04:50:57.037Z,14.05
2022-08-19T04:51:57.016Z,14.08
2022-08-19T04:52:57.078Z,14.09
2022-08-19T04:53:57.041Z,14.11
2022-08-19T04:54:56.987Z,14.12
2022-08-19T04:55:56.951Z,14.16
2022-08-19T04:56:56.942Z,14.13
2022-08-19T04:57:56.941Z,14.16
2022-08-19T04:58:56.921Z,14.19
2022-08-19T04:59:57.022Z,14.17
2022-08-19T05:00:56.974Z,14.19
2022-08-19T05:01:56.878Z,14.19
2022-08-19T05:02:56.862Z,14.23
2022-08-19T05:03:56.854Z,14.21
2022-08-19T05:04:56.862Z,14.23
2022-08-19T05:05:56.857Z,14.26
2022-08-19T05:07:00.905Z,14.27
2022-08-19T05:07:56.804Z,14.29
2022-08-19T05:08:56.794Z,14.31
2022-08-19T05:09:58.886Z,14.38
2022-08-19T05:10:56.778Z,14.39
2022-08-19T05:11:56.874Z,14.38
2022-08-19T05:12:56.745Z,14.41
2022-08-19T05:13:56.727Z,14.46
2022-08-19T05:14:56.725Z,14.48
2022-08-19T05:15:56.700Z,14.53
2022-08-19T05:17:17.226Z,14.60
2022-08-19T05:17:57.698Z,14.61
2022-08-19T05:18:56.678Z,14.66
2022-08-19T05:19:56.648Z,14.67
2022-08-19T05:20:56.640Z,14.72
2022-08-19T05:21:56.634Z,14.78
2022-08-19T05:22:56.672Z,14.83
2022-08-19T05:23:56.643Z,14.93
2022-08-19T05:25:11.655Z,14.97
2022-08-19T05:25:57.570Z,15.04
2022-08-19T05:26:56.565Z,15.11
2022-08-19T05:27:56.550Z,15.16
2022-08-19T05:28:56.541Z,15.22
2022-08-19T05:29:56.559Z,15.28
2022-08-19T05:30:56.520Z,15.34
2022-08-19T05:31:56.505Z,15.37
2022-08-19T05:32:56.492Z,15.41
2022-08-19T05:33:56.524Z,15.48
2022-08-19T05:34:56.474Z,15.55
2022-08-19T05:35:56.566Z,15.59
2022-08-19T05:36:56.438Z,15.64
2022-08-19T05:37:58.889Z,15.73
2022-08-19T05:38:56.422Z,15.80
2022-08-19T05:39:56.423Z,15.86
2022-08-19T05:40:56.387Z,15.93
2022-08-19T05:41:56.427Z,16.03
2022-08-19T05:42:56.377Z,16.08
2022-08-19T05:43:56.361Z,16.14
2022-08-19T05:44:56.349Z,16.23
2022-08-19T05:45:56.317Z,16.32
2022-08-19T05:46:56.329Z,16.40
2022-08-19T05:47:56.426Z,16.47
2022-08-19T05:48:56.313Z,16.57
2022-08-19T05:49:56.279Z,16.63
2022-08-19T05:50:56.258Z,16.70
2022-08-19T05:51:56.247Z,16.77
2022-08-19T05:52:56.365Z,16.82
2022-08-19T05:53:56.352Z,16.91
2022-08-19T05:54:56.562Z,16.99
2022-08-19T05:55:56.201Z,17.09
2022-08-19T05:56:56.190Z,17.20
2022-08-19T05:57:56.197Z,17.30
2022-08-19T05:58:56.162Z,17.36
2022-08-19T05:59:58.352Z,17.40
2022-08-19T06:00:56.133Z,17.49
2022-08-19T06:01:56.141Z,17.54
2022-08-19T06:02:56.465Z,17.60
2022-08-19T06:03:59.924Z,17.66
2022-08-19T06:04:56.085Z,17.73
2022-08-19T06:05:56.088Z,17.79
2022-08-19T06:06:56.069Z,17.84
2022-08-19T06:07:56.061Z,17.91
2022-08-19T06:08:56.073Z,17.96
2022-08-19T06:10:00.667Z,18.02
2022-08-19T06:10:57.137Z,18.10
2022-08-19T06:11:56.260Z,18.09
2022-08-19T06:12:56.006Z,18.13
2022-08-19T06:13:59.545Z,18.14
2022-08-19T06:15:01.188Z,18.19
2022-08-19T06:15:56.976Z,18.21
2022-08-19T06:16:55.971Z,18.26
2022-08-19T06:17:55.950Z,18.31
2022-08-19T06:18:56.711Z,18.38
2022-08-19T06:19:55.891Z,18.50
2022-08-19T06:20:56.361Z,18.57
2022-08-19T06:21:55.875Z,18.60
2022-08-19T06:22:56.041Z,18.62
2022-08-19T06:23:55.934Z,18.65
2022-08-19T06:24:55.834Z,18.69
2022-08-19T06:25:55.822Z,18.76
2022-08-19T06:26:59.235Z,18.86
2022-08-19T06:28:14.699Z,18.90
2022-08-19T06:28:56.787Z,18.96
2022-08-19T06:29:55.774Z,19.02
2022-08-19T06:30:55.767Z,19.06
2022-08-19T06:31:55.746Z,19.13
2022-08-19T06:32:55.819Z,19.13
2022-08-19T06:33:55.746Z,19.20
2022-08-19T06:34:55.715Z,19.25
2022-08-19T06:35:55.712Z,19.31
2022-08-19T06:36:55.693Z,19.40
2022-08-19T06:37:55.800Z,19.42
2022-08-19T06:38:55.660Z,19.46
2022-08-19T06:39:55.730Z,19.49
2022-08-19T06:40:55.649Z,19.53
2022-08-19T06:41:58.565Z,19.58
2022-08-19T06:42:55.692Z,19.62
2022-08-19T06:43:56.350Z,19.68
2022-08-19T06:44:55.581Z,19.71
2022-08-19T06:45:55.592Z,19.76
2022-08-19T06:46:55.573Z,19.83
2022-08-19T06:47:55.541Z,19.79
2022-08-19T06:48:55.577Z,19.83
2022-08-19T06:49:55.513Z,19.85
2022-08-19T06:50:56.541Z,19.87
2022-08-19T06:51:55.491Z,19.92
2022-08-19T06:52:55.748Z,19.94
2022-08-19T06:53:55.841Z,20.00
2022-08-19T06:54:56.855Z,20.05
2022-08-19T06:55:55.445Z,20.05
2022-08-19T06:56:55.548Z,20.10
2022-08-19T06:57:55.413Z,20.15
2022-08-19T06:58:55.406Z,20.12
2022-08-19T06:59:55.386Z,20.13
2022-08-19T07:00:55.381Z,20.17
2022-08-19T07:01:55.397Z,20.22
2022-08-19T07:02:59.507Z,20.25
2022-08-19T07:03:56.345Z,20.30
2022-08-19T07:04:55.328Z,20.40
2022-08-19T07:05:55.348Z,20.44
2022-08-19T07:06:55.518Z,20.50
2022-08-19T07:07:57.554Z,20.57
2022-08-19T07:08:55.406Z,20.63
2022-08-19T07:09:58.996Z,20.66
2022-08-19T07:10:55.250Z,20.69
2022-08-19T07:11:55.231Z,20.71
2022-08-19T07:12:55.466Z,20.75
2022-08-19T07:13:55.202Z,20.78
2022-08-19T07:14:55.310Z,20.83
2022-08-19T07:15:55.203Z,20.93
2022-08-19T07:16:55.178Z,20.97
2022-08-19T07:17:55.163Z,21.06
2022-08-19T07:18:55.146Z,21.12
2022-08-19T07:19:55.124Z,21.16
2022-08-19T07:20:55.135Z,21.21
2022-08-19T07:21:55.107Z,21.24
2022-08-19T07:22:55.347Z,21.36
2022-08-19T07:23:55.125Z,21.40
2022-08-19T07:24:55.081Z,21.37
2022-08-19T07:25:55.112Z,21.38
2022-08-19T07:26:55.086Z,21.43
2022-08-19T07:27:55.269Z,21.48
2022-08-19T07:28:55.031Z,21.55
2022-08-19T07:29:57.191Z,21.56
2022-08-19T07:30:55.526Z,21.63
2022-08-19T07:31:54.980Z,21.64
2022-08-19T07:32:55.002Z,21.68
2022-08-19T07:33:54.954Z,21.71
2022-08-19T07:34:54.948Z,21.71
2022-08-19T07:35:54.932Z,21.74
2022-08-19T07:36:54.919Z,21.85
2022-08-19T07:37:55.177Z,21.94
2022-08-19T07:38:54.944Z,21.98
2022-08-19T07:39:54.947Z,21.96
2022-08-19T07:40:54.890Z,22.02
2022-08-19T07:41:54.854Z,22.02
2022-08-19T07:42:54.854Z,22.08
2022-08-19T07:43:54.827Z,22.19
2022-08-19T07:44:54.848Z,22.27
2022-08-19T07:45:54.840Z,22.36
2022-08-19T07:46:54.806Z,22.35
2022-08-19T07:47:54.786Z,22.39
2022-08-19T07:48:54.778Z,22.51
2022-08-19T07:49:54.775Z,22.67
2022-08-19T07:50:54.794Z,22.70
2022-08-19T07:51:54.745Z,22.81
2022-08-19T07:52:54.720Z,22.86
2022-08-19T07:53:54.709Z,22.89
2022-08-19T07:54:54.751Z,22.85
2022-08-19T07:55:54.687Z,22.86
2022-08-19T07:56:54.692Z,22.85
2022-08-19T07:57:54.657Z,22.89
2022-08-19T07:59:54.635Z,23.04
2022-08-19T08:00:54.625Z,23.11
2022-08-19T08:01:54.647Z,23.07
2022-08-19T08:02:55.778Z,23.12
2022-08-19T08:03:54.628Z,23.21
2022-08-19T08:04:54.587Z,23.25
2022-08-19T08:05:54.556Z,23.25
2022-08-19T08:06:54.588Z,23.34
2022-08-19T08:07:54.539Z,23.52
2022-08-19T08:08:54.554Z,23.57
2022-08-19T08:10:56.801Z,23.44
2022-08-19T08:11:54.472Z,23.29
2022-08-19T08:13:09.492Z,23.35
2022-08-19T08:14:00.734Z,23.50
2022-08-19T08:14:55.945Z,23.39
2022-08-19T08:15:54.814Z,23.39
2022-08-19T08:16:54.445Z,23.42
2022-08-19T08:17:54.429Z,23.56
2022-08-19T08:18:54.391Z,23.57
2022-08-19T08:19:54.401Z,23.60
2022-08-19T08:20:54.384Z,23.63
2022-08-19T08:21:54.362Z,23.78
2022-08-19T08:22:54.412Z,23.82
2022-08-19T08:23:56.044Z,23.79
2022-08-19T08:24:54.350Z,23.86
2022-08-19T08:25:54.317Z,23.96
2022-08-19T08:26:57.586Z,23.90
2022-08-19T08:27:55.724Z,23.78
2022-08-19T08:28:54.297Z,23.89
2022-08-19T08:29:54.247Z,23.92
2022-08-19T08:30:54.258Z,23.99
2022-08-19T08:32:00.084Z,24.00
2022-08-19T08:32:55.250Z,24.04
2022-08-19T08:33:54.207Z,24.00
2022-08-19T08:34:54.189Z,24.00
2022-08-19T08:35:54.181Z,24.11
2022-08-19T08:36:54.203Z,24.34
2022-08-19T08:37:55.188Z,24.27
2022-08-19T08:39:54.145Z,24.70
2022-08-19T08:40:54.133Z,24.77
2022-08-19T08:41:54.113Z,24.75
2022-08-19T08:42:54.223Z,24.66
2022-08-19T08:43:54.157Z,24.80
2022-08-19T08:45:54.057Z,24.55
2022-08-19T08:46:54.077Z,24.52
2022-08-19T08:47:54.174Z,24.55
2022-08-19T08:48:54.017Z,24.46
2022-08-19T08:49:54.092Z,24.42
2022-08-19T08:50:54.001Z,24.44
2022-08-19T08:51:59.546Z,24.46
2022-08-19T08:52:55.082Z,24.49
2022-08-19T08:53:56.214Z,24.39
2022-08-19T08:54:54.777Z,24.45
2022-08-19T08:55:54.844Z,24.68
2022-08-19T08:56:53.909Z,24.90
2022-08-19T08:57:54.059Z,25.01
2022-08-19T08:58:54.875Z,24.98
2022-08-19T08:59:54.281Z,25.08
2022-08-19T09:00:54.288Z,25.30
2022-08-19T09:01:54.771Z,25.41
2022-08-19T09:02:53.841Z,25.20
2022-08-19T09:03:53.841Z,25.34
2022-08-19T09:04:54.007Z,25.44
2022-08-19T09:05:53.822Z,25.60
2022-08-19T09:06:53.794Z,25.61
2022-08-19T09:07:53.805Z,25.45
2022-08-19T09:08:56.881Z,25.59
2022-08-19T09:09:53.757Z,25.74
2022-08-19T09:10:55.185Z,25.29
2022-08-19T09:11:53.736Z,25.02
2022-08-19T09:12:53.718Z,24.94
2022-08-19T09:13:53.737Z,25.04
2022-08-19T09:14:53.688Z,25.35
2022-08-19T09:15:53.679Z,25.38
2022-08-19T09:16:53.658Z,25.12
2022-08-19T09:17:53.867Z,25.01
2022-08-19T09:18:53.640Z,24.89
2022-08-19T09:19:53.711Z,24.93
2022-08-19T09:20:53.626Z,24.93
2022-08-19T09:21:53.622Z,24.99
2022-08-19T09:22:53.594Z,24.90
2022-08-19T09:23:53.581Z,24.86
2022-08-19T09:24:53.567Z,24.86
2022-08-19T09:25:53.572Z,25.11
2022-08-19T09:26:53.533Z,25.45
2022-08-19T09:27:53.533Z,25.69
2022-08-19T09:28:53.513Z,26.09
2022-08-19T09:29:53.526Z,26.00
2022-08-19T09:30:53.499Z,25.94
2022-08-19T09:31:53.504Z,26.04
2022-08-19T09:32:53.496Z,26.23
2022-08-19T09:33:53.464Z,25.91
2022-08-19T09:34:53.470Z,26.03
2022-08-19T09:35:53.967Z,26.17
2022-08-19T09:36:53.420Z,26.24
2022-08-19T09:37:57.588Z,26.09
2022-08-19T09:38:54.396Z,26.44
2022-08-19T09:39:53.444Z,26.59
2022-08-19T09:40:53.362Z,26.59
2022-08-19T09:41:53.361Z,26.59
2022-08-19T09:42:53.348Z,26.69
2022-08-19T09:43:53.403Z,26.61
2022-08-19T09:44:53.364Z,26.75
2022-08-19T09:45:53.333Z,26.96
2022-08-19T09:46:53.296Z,27.02
2022-08-19T09:47:54.164Z,26.96
2022-08-19T09:48:53.265Z,26.73
2022-08-19T09:49:53.278Z,26.51
2022-08-19T09:50:53.245Z,26.04
2022-08-19T09:51:53.228Z,25.61
2022-08-19T09:52:53.937Z,25.38
2022-08-19T09:53:53.218Z,25.39
2022-08-19T09:54:53.189Z,25.53
2022-08-19T09:55:53.212Z,25.76
2022-08-19T09:56:53.161Z,26.09
2022-08-19T09:57:53.269Z,26.17
2022-08-19T09:58:53.149Z,26.42
2022-08-19T09:59:53.132Z,26.28
2022-08-19T10:00:53.174Z,26.16
2022-08-19T10:01:53.164Z,26.35
2022-08-19T10:02:53.261Z,26.28
2022-08-19T10:03:53.085Z,26.38
2022-08-19T10:04:53.078Z,26.42
2022-08-19T10:05:55.109Z,26.28
2022-08-19T10:06:53.904Z,26.13
2022-08-19T10:07:53.181Z,26.34
2022-08-19T10:08:53.045Z,26.39
2022-08-19T10:09:53.005Z,26.11
2022-08-19T10:10:52.997Z,26.24
2022-08-19T10:11:54.864Z,26.29
2022-08-19T10:12:52.978Z,26.17
2022-08-19T10:13:52.998Z,26.34
2022-08-19T10:14:52.948Z,26.24
2022-08-19T10:15:52.938Z,26.23
2022-08-19T10:16:53.112Z,26.46
2022-08-19T10:17:55.406Z,26.90
2022-08-19T10:18:52.900Z,27.24
2022-08-19T10:19:55.866Z,27.50
2022-08-19T10:20:52.897Z,27.30
2022-08-19T10:21:52.863Z,27.45
2022-08-19T10:22:53.379Z,27.46
2022-08-19T10:23:52.844Z,27.13
2022-08-19T10:24:52.828Z,27.05
2022-08-19T10:25:52.833Z,27.24
2022-08-19T10:26:57.300Z,27.45
2022-08-19T10:27:55.994Z,27.63
2022-08-19T10:28:52.774Z,27.53
2022-08-19T10:29:52.786Z,27.76
2022-08-19T10:30:52.743Z,27.76
2022-08-19T10:32:01.491Z,27.76
2022-08-19T10:32:53.718Z,27.18
2022-08-19T10:33:53.808Z,27.06
2022-08-19T10:34:52.748Z,26.84
2022-08-19T10:35:56.534Z,26.69
2022-08-19T10:36:56.283Z,26.73
2022-08-19T10:37:57.257Z,26.96
2022-08-19T10:38:56.709Z,27.18
2022-08-19T10:39:52.670Z,27.30
2022-08-19T10:40:52.623Z,26.79
2022-08-19T10:41:52.614Z,26.76
2022-08-19T10:42:52.593Z,27.03
2022-08-19T10:43:52.624Z,27.35
2022-08-19T10:44:52.578Z,27.49
2022-08-19T10:45:52.870Z,27.46
2022-08-19T10:46:52.564Z,27.52
2022-08-19T10:47:52.540Z,27.63
2022-08-19T10:48:52.526Z,27.25
2022-08-19T10:49:52.568Z,27.12
2022-08-19T10:50:52.498Z,26.69
2022-08-19T10:51:52.489Z,26.68
2022-08-19T10:52:52.484Z,26.98
2022-08-19T10:53:52.477Z,27.38
2022-08-19T10:54:52.450Z,27.76
2022-08-19T10:55:52.470Z,27.68
2022-08-19T10:56:52.429Z,27.24
2022-08-19T10:58:02.177Z,26.86
2022-08-19T10:58:53.411Z,26.68
2022-08-19T10:59:52.402Z,26.47
2022-08-19T11:00:52.426Z,26.75
2022-08-19T11:01:52.882Z,26.93
2022-08-19T11:02:52.364Z,26.97
2022-08-19T11:03:52.344Z,27.11
2022-08-19T11:04:52.333Z,27.18
2022-08-19T11:05:52.323Z,27.13
2022-08-19T11:06:52.304Z,27.03
2022-08-19T11:07:52.624Z,26.97
2022-08-19T11:08:52.326Z,27.21
2022-08-19T11:09:52.277Z,27.48
2022-08-19T11:10:52.258Z,27.74
2022-08-19T11:11:52.249Z,27.99
2022-08-19T11:12:52.239Z,28.27
2022-08-19T11:13:52.336Z,28.46
2022-08-19T11:14:52.219Z,28.74
2022-08-19T11:15:52.199Z,28.91
2022-08-19T11:16:52.182Z,28.88
2022-08-19T11:17:52.313Z,28.88
2022-08-19T11:18:52.170Z,28.62
2022-08-19T11:19:52.298Z,28.35
2022-08-19T11:20:52.141Z,28.52
2022-08-19T11:21:52.143Z,28.64
2022-08-19T11:22:52.142Z,28.43
2022-08-19T11:23:52.104Z,28.09
2022-08-19T11:24:52.083Z,27.80
2022-08-19T11:25:52.106Z,27.59
2022-08-19T11:26:52.055Z,27.39
2022-08-19T11:27:52.065Z,27.24
2022-08-19T11:28:52.045Z,27.40
2022-08-19T11:29:52.034Z,27.46
2022-08-19T11:30:52.014Z,27.77
2022-08-19T11:31:52.117Z,27.61
2022-08-19T11:32:52.058Z,27.09
2022-08-19T11:33:51.979Z,27.12
2022-08-19T11:34:52.008Z,27.30
2022-08-19T11:35:51.956Z,27.69
2022-08-19T11:36:51.941Z,27.86
2022-08-19T11:37:52.062Z,27.84
2022-08-19T11:38:51.911Z,28.02
2022-08-19T11:39:53.741Z,28.09
2022-08-19T11:40:51.894Z,28.24
2022-08-19T11:41:51.889Z,28.43
2022-08-19T11:42:51.864Z,28.67
2022-08-19T11:43:51.884Z,28.40
2022-08-19T11:44:51.845Z,27.83
2022-08-19T11:45:51.854Z,27.53
2022-08-19T11:46:51.815Z,27.46
2022-08-19T11:47:51.976Z,27.72
2022-08-19T11:48:51.866Z,27.68
2022-08-19T11:49:51.817Z,27.90
2022-08-19T11:50:51.767Z,27.99
2022-08-19T11:51:51.757Z,28.14
2022-08-19T11:52:51.737Z,28.21
2022-08-19T11:53:51.743Z,28.28
2022-08-19T11:54:51.734Z,28.40
2022-08-19T11:55:51.739Z,27.98
2022-08-19T11:56:51.729Z,27.65
2022-08-19T11:57:51.680Z,27.48
2022-08-19T11:58:51.680Z,27.45
2022-08-19T11:59:51.662Z,27.34
2022-08-19T12:00:51.650Z,27.42
2022-08-19T12:01:51.662Z,27.12
2022-08-19T12:02:51.623Z,27.24
2022-08-19T12:03:51.685Z,27.43
2022-08-19T12:04:51.604Z,27.40
2022-08-19T12:05:51.584Z,27.42
2022-08-19T12:06:51.574Z,27.23
2022-08-19T12:07:51.598Z,27.09
2022-08-19T12:08:51.546Z,26.97
2022-08-19T12:09:51.538Z,27.12
2022-08-19T12:10:51.526Z,27.24
2022-08-19T12:11:51.515Z,27.30
2022-08-19T12:12:58.843Z,27.34
2022-08-19T12:13:52.598Z,27.24
2022-08-19T12:14:51.472Z,27.23
2022-08-19T12:15:51.464Z,27.12
2022-08-19T12:16:52.481Z,27.12
2022-08-19T12:17:51.442Z,27.05
2022-08-19T12:18:51.433Z,27.13
2022-08-19T12:19:51.452Z,27.23
2022-08-19T12:20:51.403Z,27.24
2022-08-19T12:21:51.438Z,27.24
2022-08-19T12:22:51.374Z,27.11
2022-08-19T12:23:55.509Z,27.11
2022-08-19T12:24:51.353Z,27.25
2022-08-19T12:25:51.450Z,27.30
2022-08-19T12:26:53.007Z,27.06
2022-08-19T12:27:57.210Z,27.21
2022-08-19T12:28:52.306Z,27.62
2022-08-19T12:29:51.295Z,27.91
2022-08-19T12:30:51.282Z,27.90
2022-08-19T12:31:51.298Z,27.69
2022-08-19T12:32:51.261Z,27.42
2022-08-19T12:33:51.268Z,27.62
2022-08-19T12:34:51.235Z,27.76
2022-08-19T12:35:51.221Z,27.99
2022-08-19T12:36:51.202Z,28.06
2022-08-19T12:37:56.534Z,28.05
2022-08-19T12:38:52.183Z,28.14
2022-08-19T12:39:51.194Z,27.96
2022-08-19T12:40:51.174Z,28.08
2022-08-19T12:41:54.091Z,28.15
2022-08-19T12:42:51.125Z,28.05
2022-08-19T12:43:51.142Z,28.08
2022-08-19T12:44:51.113Z,28.18
2022-08-19T12:45:51.092Z,28.28
2022-08-19T12:46:51.080Z,28.17
2022-08-19T12:47:51.220Z,28.23
2022-08-19T12:48:51.164Z,28.23
2022-08-19T12:49:53.261Z,27.84
2022-08-19T12:50:51.029Z,27.78
2022-08-19T12:51:51.019Z,27.86
2022-08-19T12:52:51.010Z,28.01
2022-08-19T12:53:50.988Z,28.08
2022-08-19T12:54:54.612Z,27.88
2022-08-19T12:55:51.088Z,27.76